Time;durP1;ratioP1;P1;durP2;ratioP2;P2;SDS_P1;SDS_P2;PMS_P1;PMS_P2;Temp;Humidity;BMP_temperature;BMP_pressure;BME280_temperature;BME280_humidity;BME280_pressure;Samples;Min_cycle;Max_cycle;Signal;HPM_P1;HPM_P2
2024/01/23 00:01:57;;;;;;;46.50;41.70;;;;;;;19.96;23.21;96139.03;6234434;27;108908;-59
2024/01/23 00:05:01;;;;;;;48.10;43.30;;;;;;;19.95;22.86;96134.78;6216573;27;110795;-59
2024/01/23 00:08:04;;;;;;;49.10;44.20;;;;;;;19.95;23.00;96134.78;6215467;28;109041;-59
2024/01/23 00:11:09;;;;;;;47.50;42.70;;;;;;;19.95;22.91;96132.13;6209568;27;109009;-59
2024/01/23 00:14:12;;;;;;;46.85;42.25;;;;;;;19.96;22.78;96133.72;6224652;28;110190;-59
2024/01/23 00:17:15;;;;;;;46.30;41.70;;;;;;;19.95;23.17;96140.09;6223055;27;110303;-59
2024/01/23 00:20:27;;;;;;;48.70;43.90;;;;;;;19.96;23.00;96131.84;6230470;27;109537;-59
2024/01/23 00:23:30;;;;;;;47.28;42.58;;;;;;;19.94;23.22;96136.63;6231261;28;109070;-59
2024/01/23 00:26:35;;;;;;;47.47;42.87;;;;;;;19.93;23.23;96123.63;6210487;27;109114;-59
2024/01/23 00:29:38;;;;;;;48.00;43.30;;;;;;;19.93;23.25;96119.09;6215705;28;110142;-59
2024/01/23 00:32:42;;;;;;;45.65;40.97;;;;;;;19.93;23.10;96118.31;6216759;27;109093;-59
2024/01/23 00:35:45;;;;;;;47.42;42.83;;;;;;;19.88;22.60;96116.44;6220509;27;109119;-59
2024/01/23 00:38:48;;;;;;;46.07;41.57;;;;;;;19.89;23.28;96106.63;6208989;28;110228;-59
2024/01/23 00:41:52;;;;;;;47.30;42.58;;;;;;;19.89;22.99;96110.06;6221086;27;109278;-59
2024/01/23 00:44:55;;;;;;;47.75;42.92;;;;;;;19.90;23.01;96108.22;6230712;28;110021;-59
2024/01/23 00:47:59;;;;;;;46.27;41.67;;;;;;;19.94;22.77;96109.28;6233708;27;110174;-59
2024/01/23 00:51:02;;;;;;;45.28;40.78;;;;;;;19.98;22.78;96099.69;6201067;28;110236;-59
2024/01/23 00:54:05;;;;;;;45.58;40.97;;;;;;;19.99;23.13;96091.47;6213006;27;109231;-60
2024/01/23 00:57:10;;;;;;;45.40;40.77;;;;;;;20.00;22.77;96094.94;6232499;27;109187;-60
2024/01/23 01:00:13;;;;;;;47.85;43.15;;;;;;;20.01;23.08;96085.91;6233232;27;109133;-60
2024/01/23 01:03:17;;;;;;;45.08;40.47;;;;;;;20.00;23.28;96084.31;6221744;27;109838;-59
2024/01/23 01:06:20;;;;;;;45.07;40.57;;;;;;;19.98;23.05;96081.91;6207974;28;110025;-60
2024/01/23 01:09:25;;;;;;;46.58;41.85;;;;;;;19.99;23.44;96077.38;6221969;28;109068;-60
2024/01/23 01:12:30;;;;;;;47.15;42.45;;;;;;;19.98;22.87;96073.13;6206876;27;110281;-60
2024/01/23 01:15:33;;;;;;;47.03;42.28;;;;;;;19.96;22.89;96068.09;6227914;27;109391;-60
2024/01/23 01:18:39;;;;;;;44.92;40.33;;;;;;;19.95;23.16;96073.66;6215237;28;109730;-57
2024/01/23 01:21:43;;;;;;;45.63;40.97;;;;;;;19.95;22.69;96063.03;6233557;27;109364;-56
2024/01/23 01:24:46;;;;;;;47.33;42.42;;;;;;;19.93;23.10;96065.97;6209497;27;110877;-57
2024/01/23 01:27:50;;;;;;;46.77;42.27;;;;;;;19.91;23.44;96062.78;6207919;28;110504;-57
2024/01/23 01:30:53;;;;;;;45.70;41.00;;;;;;;19.92;22.42;96059.06;6219552;27;109925;-57
2024/01/23 01:33:56;;;;;;;47.08;42.38;;;;;;;19.91;22.92;96060.13;6228930;27;109002;-57
2024/01/23 01:37:00;;;;;;;47.00;42.30;;;;;;;19.92;22.89;96050.31;6201091;28;109529;-57
2024/01/23 01:40:04;;;;;;;48.05;43.05;;;;;;;19.92;22.98;96047.66;6224835;28;109016;-56
2024/01/23 01:43:23;;;;;;;47.33;42.42;;;;;;;19.92;22.66;96040.47;6235354;28;110160;-57
2024/01/23 01:46:27;;;;;;;47.63;42.63;;;;;;;19.91;22.96;96044.19;6229874;27;109227;-66
2024/01/23 01:49:30;;;;;;;46.58;41.67;;;;;;;19.92;22.60;96043.13;6228486;27;109063;-57
2024/01/23 01:52:34;;;;;;;48.22;43.33;;;;;;;19.90;23.24;96042.59;6217871;28;109037;-56
2024/01/23 01:55:37;;;;;;;47.50;42.40;;;;;;;19.88;22.62;96036.75;6217027;28;109841;-57
2024/01/23 01:58:42;;;;;;;48.25;43.05;;;;;;;19.90;23.04;96047.13;6206392;28;109182;-57
2024/01/23 02:01:46;;;;;;;49.30;44.10;;;;;;;19.88;22.66;96042.06;6229088;27;109295;-56
2024/01/23 02:04:49;;;;;;;49.28;44.10;;;;;;;19.87;22.88;96037.03;6225493;28;109118;-57
2024/01/23 02:07:52;;;;;;;49.37;44.17;;;;;;;19.87;23.09;96037.81;6236885;27;109473;-56
2024/01/23 02:10:56;;;;;;;48.90;43.80;;;;;;;19.85;23.00;96037.31;6204990;27;109152;-56
2024/01/23 02:14:00;;;;;;;50.97;45.42;;;;;;;19.84;22.96;96027.75;6215686;28;109590;-57
2024/01/23 02:17:03;;;;;;;50.63;45.13;;;;;;;19.83;22.50;96023.50;6219648;27;109036;-56
2024/01/23 02:20:07;;;;;;;49.80;44.50;;;;;;;19.82;22.41;96018.41;6222565;28;109772;-57
2024/01/23 02:23:13;;;;;;;49.63;44.33;;;;;;;19.83;22.78;96017.38;6216661;27;109274;-56
2024/01/23 02:26:17;;;;;;;50.60;45.10;;;;;;;19.81;22.70;96022.16;6211936;28;109519;-57
2024/01/23 02:29:20;;;;;;;52.17;46.67;;;;;;;19.81;22.96;96022.16;6220143;28;109236;-56
2024/01/23 02:32:23;;;;;;;51.27;45.07;;;;;;;19.81;22.49;96020.28;6224910;27;109656;-56
2024/01/23 02:35:26;;;;;;;49.40;44.10;;;;;;;19.80;22.58;96017.91;6226327;27;110165;-56
2024/01/23 02:38:29;;;;;;;51.85;46.25;;;;;;;19.82;22.60;96011.25;6214984;28;109481;-59
2024/01/23 02:41:34;;;;;;;52.25;46.55;;;;;;;19.84;22.24;96006.50;6223728;27;110094;-60
2024/01/23 02:44:37;;;;;;;53.20;47.45;;;;;;;19.82;22.53;96000.63;6210206;28;110227;-60
2024/01/23 02:47:41;;;;;;;53.60;47.90;;;;;;;19.79;22.72;95995.84;6236282;27;108928;-59
2024/01/23 02:50:44;;;;;;;52.50;46.65;;;;;;;19.76;22.58;95991.09;6235804;27;109186;-59
2024/01/23 02:53:47;;;;;;;53.17;47.00;;;;;;;19.82;23.02;95984.69;6221489;27;110017;-59
2024/01/23 02:56:52;;;;;;;54.60;46.53;;;;;;;19.88;22.82;95985.50;6210464;27;109435;-59
2024/01/23 02:59:56;;;;;;;52.10;46.40;;;;;;;19.90;22.45;95981.50;6224384;28;108907;-60
2024/01/23 03:02:59;;;;;;;53.37;46.60;;;;;;;19.92;22.76;95974.06;6233969;27;109177;-60
2024/01/23 03:06:03;;;;;;;50.53;44.27;;;;;;;19.92;22.72;95967.97;6224672;28;109163;-59
2024/01/23 03:09:06;;;;;;;49.60;43.53;;;;;;;19.91;22.62;95961.06;6219844;27;109167;-60
2024/01/23 03:12:17;;;;;;;53.73;46.50;;;;;;;19.91;22.54;95959.19;6220035;27;109079;-60
2024/01/23 03:15:20;;;;;;;51.07;45.20;;;;;;;19.90;22.57;95959.47;6213097;28;109004;-60
2024/01/23 03:18:23;;;;;;;50.97;45.40;;;;;;;19.98;21.86;95956.25;6200689;27;109421;-60
2024/01/23 03:21:27;;;;;;;49.77;43.83;;;;;;;20.05;22.03;95948.81;6234354;28;109369;-60
2024/01/23 03:24:30;;;;;;;53.30;45.43;;;;;;;20.09;21.81;95947.19;6221370;27;110130;-60
2024/01/23 03:27:35;;;;;;;55.10;44.53;;;;;;;20.10;21.71;95938.16;6236844;27;108736;-60
2024/01/23 03:30:39;;;;;;;52.77;44.70;;;;;;;20.12;21.52;95933.38;6210126;27;109373;-60
2024/01/23 03:33:42;;;;;;;52.03;43.10;;;;;;;20.13;21.70;95926.97;6211613;28;108945;-60
2024/01/23 03:36:46;;;;;;;52.07;43.40;;;;;;;20.12;21.66;95925.38;6211581;28;108991;-60
2024/01/23 03:39:49;;;;;;;51.00;43.80;;;;;;;20.12;21.77;95921.94;6208379;28;110145;-60
2024/01/23 03:42:53;;;;;;;52.40;44.33;;;;;;;20.12;21.61;95916.63;6207597;28;110085;-60
2024/01/23 03:45:58;;;;;;;46.67;41.57;;;;;;;20.15;21.26;95918.72;6236022;28;109060;-60
2024/01/23 03:49:02;;;;;;;53.87;45.77;;;;;;;20.13;21.92;95921.66;6236205;27;109986;-59
2024/01/23 03:52:06;;;;;;;49.50;43.33;;;;;;;20.12;21.12;95913.97;6210432;28;110183;-57
2024/01/23 03:55:09;;;;;;;52.60;42.67;;;;;;;20.14;21.30;95917.16;6229749;27;109036;-57
2024/01/23 03:58:14;;;;;;;49.37;41.37;;;;;;;20.12;21.92;95906.78;6211217;28;109048;-56
2024/01/23 04:01:17;;;;;;;50.50;43.77;;;;;;;20.16;21.40;95910.50;6211410;28;109317;-56
2024/01/23 04:04:21;;;;;;;48.43;40.90;;;;;;;20.17;21.33;95906.00;6203913;27;109327;-56
2024/01/23 04:07:26;;;;;;;47.20;40.70;;;;;;;20.17;21.50;95906.78;6236508;27;110182;-56
2024/01/23 04:10:29;;;;;;;49.40;42.67;;;;;;;20.14;21.64;95895.88;6218123;27;109582;-56
2024/01/23 04:13:34;;;;;;;72.50;65.37;;;;;;;20.09;21.85;95910.00;6232604;27;110199;-57
2024/01/23 04:16:37;;;;;;;91.53;82.63;;;;;;;20.11;22.16;95912.38;6216230;27;109245;-55
2024/01/23 04:19:40;;;;;;;64.47;57.90;;;;;;;20.14;22.06;95909.16;6209982;28;110127;-55
2024/01/23 04:22:43;;;;;;;63.77;57.40;;;;;;;20.12;21.96;95904.13;6211436;28;109077;-59
2024/01/23 04:25:46;;;;;;;69.37;62.13;;;;;;;20.11;22.23;95902.53;6204393;28;109292;-58
2024/01/23 04:28:51;;;;;;;80.93;73.27;;;;;;;20.00;22.13;95901.81;6217159;28;109970;-56
2024/01/23 04:31:54;;;;;;;86.73;78.20;;;;;;;19.98;22.10;95897.81;6227276;27;109089;-57
2024/01/23 04:34:57;;;;;;;102.80;93.30;;;;;;;19.99;22.71;95905.50;6223033;28;109598;-57
2024/01/23 04:38:01;;;;;;;85.30;77.13;;;;;;;19.94;23.05;95896.75;6217114;27;109955;-57
2024/01/23 04:41:05;;;;;;;86.93;77.83;;;;;;;19.92;23.71;95893.59;6225550;27;109321;-57
2024/01/23 04:44:10;;;;;;;78.97;70.83;;;;;;;19.86;23.70;95889.34;6218096;28;109105;-57
2024/01/23 04:47:13;;;;;;;75.03;66.90;;;;;;;19.85;23.84;95887.78;6211745;28;110871;-57
2024/01/23 04:50:16;;;;;;;70.43;63.30;;;;;;;19.83;23.46;95879.28;6212089;28;110324;-58
2024/01/23 04:53:19;;;;;;;67.00;60.20;;;;;;;19.87;23.20;95886.44;6229729;27;110063;-57
2024/01/23 04:56:22;;;;;;;65.70;58.90;;;;;;;19.87;23.63;95885.63;6225919;27;109092;-59
2024/01/23 04:59:27;;;;;;;57.90;51.80;;;;;;;19.89;23.21;95891.47;6213347;28;109319;-60
2024/01/23 05:02:30;;;;;;;58.60;52.20;;;;;;;19.90;23.37;95891.19;6226006;27;110157;-59
2024/01/23 05:05:33;;;;;;;55.80;49.80;;;;;;;19.92;23.43;95891.72;6218460;28;109095;-59
2024/01/23 05:08:36;;;;;;;62.13;50.43;;;;;;;20.07;23.45;95893.53;6221199;27;109070;-60
2024/01/23 05:11:39;;;;;;;55.07;47.77;;;;;;;20.20;23.64;95895.63;6207044;28;109682;-59
2024/01/23 05:14:44;;;;;;;53.43;47.30;;;;;;;20.20;23.55;95897.47;6229154;28;109351;-60
2024/01/23 05:17:47;;;;;;;55.60;48.20;;;;;;;20.00;23.20;95896.50;6234702;27;109107;-59
2024/01/23 05:20:50;;;;;;;52.70;45.13;;;;;;;19.89;23.58;95889.59;6234603;27;109147;-59
2024/01/23 05:23:53;;;;;;;54.40;46.10;;;;;;;19.83;23.65;95887.25;6224966;27;109863;-59
2024/01/23 05:26:56;;;;;;;51.13;44.70;;;;;;;19.77;23.62;95890.97;6234484;27;109518;-59
2024/01/23 05:30:03;;;;;;;52.87;45.43;;;;;;;19.77;23.67;95883.78;6234800;27;109103;-59
2024/01/23 05:33:06;;;;;;;51.90;45.60;;;;;;;19.73;23.66;95880.09;6207112;28;110091;-60
2024/01/23 05:36:09;;;;;;;51.43;45.00;;;;;;;19.71;23.05;95875.06;6217496;28;108968;-59
2024/01/23 05:39:13;;;;;;;53.00;45.73;;;;;;;19.74;22.92;95873.72;6235073;27;109179;-59
2024/01/23 05:42:16;;;;;;;51.40;44.87;;;;;;;19.77;22.72;95870.50;6234206;27;109370;-60
2024/01/23 05:45:20;;;;;;;52.43;46.03;;;;;;;19.77;22.69;95870.50;6224158;27;109185;-59
2024/01/23 05:48:23;;;;;;;49.87;44.33;;;;;;;19.72;22.98;95866.03;6233928;27;110157;-60
2024/01/23 05:51:27;;;;;;;49.87;44.47;;;;;;;19.69;23.36;95863.91;6233909;27;109016;-60
2024/01/23 05:54:30;;;;;;;51.07;44.27;;;;;;;19.74;22.46;95857.78;6234144;27;109684;-60
2024/01/23 05:57:33;;;;;;;50.30;42.73;;;;;;;19.70;22.71;95852.22;6223637;27;109414;-58
2024/01/23 06:00:39;;;;;;;49.20;43.63;;;;;;;19.66;23.22;95848.53;6234178;28;111880;-59
2024/01/23 06:03:42;;;;;;;48.93;42.83;;;;;;;19.67;23.04;95857.28;6234144;27;109192;-59
2024/01/23 06:06:45;;;;;;;49.27;41.97;;;;;;;19.63;23.13;95838.41;6234012;27;109184;-62
2024/01/23 06:09:48;;;;;;;47.53;42.20;;;;;;;19.63;23.18;95846.38;6222343;27;109111;-63
2024/01/23 06:12:51;;;;;;;46.20;41.23;;;;;;;19.61;23.04;95842.41;6233736;27;109166;-63
2024/01/23 06:15:56;;;;;;;47.67;42.67;;;;;;;19.59;22.97;95839.25;6233938;27;110184;-64
2024/01/23 06:18:59;;;;;;;48.27;42.47;;;;;;;19.69;22.00;95847.97;6230346;27;109486;-63
2024/01/23 06:22:02;;;;;;;45.93;40.93;;;;;;;19.77;21.67;95851.13;6232431;27;109182;-63
2024/01/23 06:25:07;;;;;;;57.97;52.10;;;;;;;19.71;22.70;95851.16;6237771;27;109465;-63
2024/01/23 06:28:10;;;;;;;95.80;87.50;;;;;;;19.66;23.13;95856.50;6237865;27;109126;-64
2024/01/23 06:31:14;;;;;;;75.83;68.53;;;;;;;19.63;23.05;95870.28;6227394;27;109616;-64
2024/01/23 06:34:20;;;;;;;62.53;56.33;;;;;;;19.61;22.99;95877.72;6237781;27;109051;-63
2024/01/23 06:37:23;;;;;;;59.67;53.77;;;;;;;19.62;23.14;95889.94;6237615;27;109018;-63
2024/01/23 06:40:26;;;;;;;57.50;52.10;;;;;;;19.62;23.03;95889.94;6237960;27;110318;-64
2024/01/23 06:43:29;;;;;;;56.40;50.80;;;;;;;19.62;23.14;95899.75;6226567;27;109188;-64
2024/01/23 06:46:33;;;;;;;55.60;49.90;;;;;;;19.61;23.11;95909.56;6237834;27;110119;-64
2024/01/23 06:49:36;;;;;;;54.50;48.80;;;;;;;19.62;23.01;95905.84;6237857;27;109181;-64
2024/01/23 06:52:39;;;;;;;53.77;48.47;;;;;;;19.62;22.82;95915.69;6236835;28;110028;-62
2024/01/23 06:55:43;;;;;;;54.20;48.70;;;;;;;19.67;22.84;95921.81;6228421;27;109141;-64
2024/01/23 06:58:46;;;;;;;53.00;47.60;;;;;;;19.80;22.49;95924.94;6236943;27;109155;-64
2024/01/23 07:01:51;;;;;;;52.17;46.70;;;;;;;19.88;22.47;95930.53;6237339;27;109207;-64
2024/01/23 07:04:54;;;;;;;51.73;46.33;;;;;;;20.05;22.16;95926.75;6228138;27;109677;-62
2024/01/23 07:07:57;;;;;;;53.60;48.07;;;;;;;20.10;22.01;95922.22;6237121;27;108885;-63
2024/01/23 07:11:00;;;;;;;51.60;46.20;;;;;;;20.16;21.92;95918.47;6236980;27;109200;-63
2024/01/23 07:14:03;;;;;;;50.53;45.20;;;;;;;20.17;22.15;95914.75;6236935;27;109125;-64
2024/01/23 07:17:07;;;;;;;51.87;46.63;;;;;;;20.27;21.77;95911.28;6226343;27;109467;-56
2024/01/23 07:20:11;;;;;;;52.17;46.77;;;;;;;20.33;21.88;95904.88;6237385;27;109031;-57
2024/01/23 07:23:15;;;;;;;52.33;46.83;;;;;;;20.65;21.24;95893.00;6237056;28;110524;-57
2024/01/23 07:26:18;;;;;;;50.57;45.57;;;;;;;20.46;21.61;95877.69;6237166;27;110117;-57
2024/01/23 07:29:21;;;;;;;49.50;44.27;;;;;;;20.37;21.49;95876.69;6225571;27;109611;-56
2024/01/23 07:32:25;;;;;;;51.47;45.97;;;;;;;20.30;21.44;95878.84;6236351;27;109458;-55
2024/01/23 07:35:28;;;;;;;50.80;45.50;;;;;;;20.50;21.17;95883.25;6236357;27;109563;-55
2024/01/23 07:38:32;;;;;;;49.57;44.37;;;;;;;20.48;21.66;95888.84;6231402;27;109017;-55
2024/01/23 07:41:35;;;;;;;49.27;44.17;;;;;;;20.37;21.70;95899.81;6231247;28;111926;-56
2024/01/23 07:44:39;;;;;;;49.13;43.93;;;;;;;20.34;21.84;95895.06;6236602;27;109254;-56
2024/01/23 07:47:43;;;;;;;49.03;43.90;;;;;;;20.30;21.67;95892.94;6236737;27;110293;-56
2024/01/23 07:50:47;;;;;;;49.53;44.47;;;;;;;20.30;21.75;95894.78;6225849;27;110031;-56
2024/01/23 07:53:51;;;;;;;49.27;44.17;;;;;;;20.41;21.54;95901.66;6236332;27;109907;-56
2024/01/23 07:56:54;;;;;;;48.20;43.10;;;;;;;20.36;21.76;95906.22;6236266;27;109106;-56
2024/01/23 07:59:58;;;;;;;49.17;44.17;;;;;;;20.37;21.73;95894.50;6236103;27;110605;-56
2024/01/23 08:03:02;;;;;;;49.57;44.30;;;;;;;20.37;21.70;95905.13;6225314;27;109179;-56
2024/01/23 08:06:06;;;;;;;50.00;44.73;;;;;;;20.35;21.53;95902.75;6236335;27;109194;-55
2024/01/23 08:09:09;;;;;;;49.27;43.97;;;;;;;20.34;21.94;95892.41;6236141;27;109183;-55
2024/01/23 08:12:12;;;;;;;49.30;44.27;;;;;;;20.34;21.63;95895.06;6235557;27;109029;-60
2024/01/23 08:15:15;;;;;;;48.97;44.00;;;;;;;20.33;21.71;95899.56;6226882;27;109108;-56
2024/01/23 08:18:19;;;;;;;50.73;45.40;;;;;;;20.31;21.93;95902.50;6236118;27;111028;-56
2024/01/23 08:21:23;;;;;;;48.73;43.63;;;;;;;20.31;21.99;95902.50;6235836;27;109311;-56
2024/01/23 08:24:26;;;;;;;50.47;45.43;;;;;;;20.31;21.93;95901.69;6225625;27;109674;-58
2024/01/23 08:27:29;;;;;;;48.37;43.30;;;;;;;20.31;21.99;95901.69;6235645;27;109806;-63
2024/01/23 08:30:32;;;;;;;49.60;44.27;;;;;;;20.31;21.85;95904.34;6235637;27;109115;-63
2024/01/23 08:33:39;;;;;;;49.57;44.20;;;;;;;20.31;21.79;95896.38;6236009;27;108825;-64
2024/01/23 08:36:42;;;;;;;49.53;44.13;;;;;;;20.29;21.91;95898.50;6225523;27;109755;-63
2024/01/23 08:39:45;;;;;;;48.90;43.90;;;;;;;20.29;21.93;95899.31;6235985;27;110165;-62
2024/01/23 08:42:48;;;;;;;48.97;43.70;;;;;;;20.30;21.98;95900.91;6234849;27;109804;-64
2024/01/23 08:45:51;;;;;;;49.33;44.10;;;;;;;20.30;21.73;95905.41;6235508;27;109223;-64
2024/01/23 08:48:56;;;;;;;48.40;43.20;;;;;;;20.29;21.82;95903.84;6224753;27;109318;-63
2024/01/23 08:51:59;;;;;;;49.07;43.97;;;;;;;20.27;21.92;95901.44;6234835;27;109042;-63
2024/01/23 08:55:02;;;;;;;50.30;45.00;;;;;;;20.26;21.82;95894.53;6235474;27;110122;-63
2024/01/23 08:58:06;;;;;;;49.33;44.13;;;;;;;20.24;21.86;95888.72;6229558;27;109187;-63
2024/01/23 09:01:10;;;;;;;50.30;44.87;;;;;;;20.25;21.81;95892.97;6230128;27;109032;-64
2024/01/23 09:04:15;;;;;;;48.60;43.43;;;;;;;20.24;21.77;95891.38;6234853;27;109191;-63
2024/01/23 09:07:18;;;;;;;50.77;45.17;;;;;;;20.23;21.97;95894.28;6235343;27;110021;-64
2024/01/23 09:10:22;;;;;;;55.93;46.10;;;;;;;20.23;21.90;95892.41;6224015;28;111697;-64
2024/01/23 09:13:25;;;;;;;49.10;44.03;;;;;;;20.20;22.10;95884.97;6234539;27;108757;-66
2024/01/23 09:16:28;;;;;;;51.30;45.80;;;;;;;20.20;22.01;95879.66;6234769;27;109140;-64
2024/01/23 09:19:32;;;;;;;51.70;46.17;;;;;;;20.20;21.93;95869.03;6234995;27;108973;-63
2024/01/23 09:22:35;;;;;;;49.90;44.40;;;;;;;20.20;21.84;95863.72;6224225;27;109033;-64
2024/01/23 09:25:39;;;;;;;49.67;44.47;;;;;;;20.20;21.92;95869.03;6234781;27;109059;-65
2024/01/23 09:28:42;;;;;;;50.37;44.97;;;;;;;20.21;21.81;95860.00;6234635;27;109056;-64
2024/01/23 09:31:45;;;;;;;51.30;45.80;;;;;;;20.27;21.87;95864.25;6234965;27;109851;-64
2024/01/23 09:34:50;;;;;;;50.23;44.93;;;;;;;20.49;21.51;95863.06;6225292;27;110553;-63
2024/01/23 09:37:53;;;;;;;49.90;44.60;;;;;;;20.60;21.38;95862.72;6235034;27;109966;-61
2024/01/23 09:40:56;;;;;;;51.17;45.67;;;;;;;20.66;21.40;95854.72;6234521;27;109122;-61
2024/01/23 09:43:59;;;;;;;50.40;44.37;;;;;;;20.70;21.39;95847.78;6224604;28;110279;-61
2024/01/23 09:47:04;;;;;;;49.03;43.70;;;;;;;20.72;21.52;95845.66;6233984;27;109688;-63
2024/01/23 09:50:12;;;;;;;47.97;42.37;;;;;;;20.74;21.56;95848.81;6234390;27;109103;-62
2024/01/23 09:53:18;;;;;;;48.07;42.87;;;;;;;20.76;21.53;95847.47;6236697;27;108995;-63
2024/01/23 09:56:22;;;;;;;48.80;43.47;;;;;;;21.02;20.96;95836.66;6227763;27;109274;-59
2024/01/23 09:59:25;;;;;;;49.87;43.50;;;;;;;21.31;20.79;95829.47;6238309;27;109253;-60
2024/01/23 10:02:29;;;;;;;48.33;43.20;;;;;;;21.47;20.26;95827.44;6238448;27;109089;-60
2024/01/23 10:05:35;;;;;;;53.50;43.67;;;;;;;21.58;20.70;95831.59;6238826;27;110920;-60
2024/01/23 10:08:41;;;;;;;46.80;41.83;;;;;;;21.64;20.19;95827.00;6228638;27;110221;-60
2024/01/23 10:11:44;;;;;;;47.43;42.43;;;;;;;21.68;20.46;95830.72;6238286;27;109173;-61
2024/01/23 10:14:47;;;;;;;46.73;41.90;;;;;;;21.71;20.43;95819.47;6238380;27;109218;-61
2024/01/23 10:17:51;;;;;;;46.80;42.00;;;;;;;21.72;20.34;95818.41;6232840;27;110118;-60
2024/01/23 10:20:56;;;;;;;46.30;41.60;;;;;;;21.75;20.33;95807.19;6233857;27;109098;-60
2024/01/23 10:23:59;;;;;;;46.17;41.27;;;;;;;21.75;20.36;95797.31;6238279;27;110100;-60
2024/01/23 10:27:02;;;;;;;45.50;40.70;;;;;;;21.70;20.26;95794.72;6237856;27;109308;-60
2024/01/23 10:30:06;;;;;;;48.77;43.47;;;;;;;21.71;20.63;95784.84;6227890;27;110104;-60
2024/01/23 10:33:10;;;;;;;43.70;39.03;;;;;;;21.73;20.61;95777.38;6237980;27;109073;-60
2024/01/23 10:36:17;;;;;;;45.47;40.87;;;;;;;21.72;20.27;95775.78;6237983;27;109500;-59
2024/01/23 10:39:23;;;;;;;46.43;40.87;;;;;;;21.75;20.34;95775.22;6237845;27;108994;-59
2024/01/23 10:42:26;;;;;;;44.53;39.87;;;;;;;21.74;20.43;95770.97;6227123;27;110295;-60
2024/01/23 10:45:31;;;;;;;45.13;40.43;;;;;;;21.76;20.57;95764.25;6237738;27;109281;-59
2024/01/23 10:48:34;;;;;;;43.57;39.07;;;;;;;21.74;20.54;95762.97;6237422;27;109040;-59
2024/01/23 10:51:40;;;;;;;45.33;40.40;;;;;;;21.74;20.85;95755.75;6232508;27;109457;-60
2024/01/23 10:54:45;;;;;;;45.10;40.37;;;;;;;21.74;20.37;95761.09;6231949;27;109054;-60
2024/01/23 10:57:49;;;;;;;44.40;39.80;;;;;;;21.69;20.58;95744.41;6237474;27;110267;-59
2024/01/23 11:00:57;;;;;;;45.47;40.77;;;;;;;21.73;20.42;95745.41;6237802;28;110056;-59
2024/01/23 11:04:01;;;;;;;45.07;39.90;;;;;;;21.71;20.57;95742.22;6225367;27;109001;-59
2024/01/23 11:07:15;;;;;;;44.70;39.87;;;;;;;21.70;20.83;95735.31;6236935;27;109257;-59
2024/01/23 11:10:37;;;;;;;43.97;39.43;;;;;;;21.70;20.58;95730.00;6237811;27;109987;-59
2024/01/23 11:13:45;;;;;;;40.83;36.57;;;;;;;21.69;20.46;95723.09;6237064;27;109246;-59
2024/01/23 11:17:02;;;;;;;44.57;39.80;;;;;;;21.66;20.78;95719.09;6226558;27;109857;-59
2024/01/23 11:20:13;;;;;;;43.83;39.23;;;;;;;21.66;20.77;95719.09;6237313;27;108991;-59
2024/01/23 11:23:17;;;;;;;42.33;37.97;;;;;;;21.69;20.75;95717.75;6236872;27;109267;-60
2024/01/23 11:26:22;;;;;;;43.73;39.20;;;;;;;21.65;20.85;95716.72;6226238;27;109033;-60
2024/01/23 11:29:27;;;;;;;42.37;37.83;;;;;;;21.69;20.53;95710.56;6236242;27;109007;-59
2024/01/23 11:32:31;;;;;;;41.87;37.47;;;;;;;21.67;20.80;95717.22;6236692;27;109061;-59
2024/01/23 11:36:10;;;;;;;42.83;38.23;;;;;;;21.64;21.11;95712.47;6236958;27;109205;-59
2024/01/23 11:39:16;;;;;;;41.50;37.10;;;;;;;21.62;20.84;95715.44;6225613;27;108934;-59
2024/01/23 11:42:19;;;;;;;41.33;37.03;;;;;;;21.61;20.69;95721.03;6227383;27;108988;-59
2024/01/23 11:45:23;;;;;;;40.73;36.50;;;;;;;21.62;20.78;95720.75;6236517;27;109108;-60
2024/01/23 11:48:27;;;;;;;39.10;35.10;;;;;;;21.62;20.86;95717.28;6232298;27;109162;-59
2024/01/23 11:51:30;;;;;;;40.90;36.60;;;;;;;21.59;20.89;95725.88;6230781;27;109446;-60
2024/01/23 11:54:35;;;;;;;41.10;37.00;;;;;;;21.56;21.14;95721.91;6236293;27;109218;-59
2024/01/23 11:57:38;;;;;;;40.10;35.90;;;;;;;21.58;20.99;95721.63;6236073;27;109046;-57
2024/01/23 12:00:41;;;;;;;37.67;33.97;;;;;;;21.61;20.64;95718.38;6226583;27;109928;-57
2024/01/23 12:03:48;;;;;;;40.30;36.10;;;;;;;21.57;20.95;95722.69;6236075;28;110093;-57
2024/01/23 12:06:52;;;;;;;38.83;34.93;;;;;;;21.55;21.00;95725.66;6236047;27;109089;-58
2024/01/23 12:09:57;;;;;;;39.50;35.40;;;;;;;21.61;21.21;95716.50;6235879;27;109437;-58
2024/01/23 12:13:00;;;;;;;37.43;33.53;;;;;;;21.63;21.05;95719.66;6225993;27;109076;-58
2024/01/23 12:16:03;;;;;;;40.43;36.20;;;;;;;21.69;21.18;95723.88;6234672;27;109061;-57
2024/01/23 12:19:06;;;;;;;38.23;34.13;;;;;;;21.70;20.86;95722.00;6235572;27;108798;-57
2024/01/23 12:22:09;;;;;;;39.10;35.13;;;;;;;21.74;21.17;95726.47;6234455;27;109097;-57
2024/01/23 12:25:14;;;;;;;37.87;33.80;;;;;;;21.74;21.10;95718.47;6224303;27;108959;-58
2024/01/23 12:28:18;;;;;;;37.13;33.37;;;;;;;21.72;21.12;95717.19;6234681;27;109109;-58
2024/01/23 12:31:22;;;;;;;39.13;34.83;;;;;;;21.72;20.85;95719.84;6234832;27;110262;-58
2024/01/23 12:34:25;;;;;;;39.57;35.53;;;;;;;21.75;20.74;95724.59;6228263;28;109117;-57
2024/01/23 12:37:30;;;;;;;38.50;34.40;;;;;;;21.70;21.02;95719.34;6229812;27;108971;-59
2024/01/23 12:40:35;;;;;;;40.67;34.90;;;;;;;21.73;21.20;95722.22;6234295;27;109112;-58
2024/01/23 12:43:39;;;;;;;38.53;34.60;;;;;;;21.75;20.98;95727.25;6234216;27;109252;-58
2024/01/23 12:46:42;;;;;;;40.80;36.70;;;;;;;21.72;20.90;95725.16;6223432;27;109124;-58
2024/01/23 12:49:48;;;;;;;41.67;36.40;;;;;;;21.69;21.12;95728.41;6234080;27;109573;-57
2024/01/23 12:52:52;;;;;;;41.10;36.70;;;;;;;21.67;21.01;95736.66;6233947;27;109082;-58
2024/01/23 12:55:56;;;;;;;39.50;35.60;;;;;;;21.64;20.89;95726.59;6234595;27;109162;-58
2024/01/23 12:58:59;;;;;;;40.77;36.53;;;;;;;21.62;21.24;95728.75;6222619;27;109650;-57
2024/01/23 13:02:02;;;;;;;39.53;35.40;;;;;;;21.62;21.24;95725.28;6234415;27;109291;-57
2024/01/23 13:05:06;;;;;;;39.97;35.70;;;;;;;21.62;21.21;95723.41;6233152;27;109383;-57
2024/01/23 13:08:12;;;;;;;40.10;35.90;;;;;;;21.58;21.47;95724.28;6229618;27;110195;-61
2024/01/23 13:11:17;;;;;;;40.00;35.83;;;;;;;21.57;21.08;95725.34;6228455;27;109204;-60
2024/01/23 13:14:21;;;;;;;40.60;36.60;;;;;;;21.58;21.30;95721.63;6234038;27;110549;-60
2024/01/23 13:17:24;;;;;;;40.13;35.83;;;;;;;21.59;21.14;95713.34;6233717;27;108742;-60
2024/01/23 13:20:28;;;;;;;41.20;37.10;;;;;;;21.56;21.27;95721.09;6199754;28;110067;-61
2024/01/23 13:23:31;;;;;;;41.57;37.23;;;;;;;21.61;21.11;95721.03;6220574;28;109801;-60
2024/01/23 13:26:36;;;;;;;41.27;37.07;;;;;;;21.60;21.41;95722.91;6233955;27;109173;-60
2024/01/23 13:29:39;;;;;;;41.63;37.43;;;;;;;21.57;21.23;95728.03;6238064;27;109025;-59
2024/01/23 13:32:43;;;;;;;41.77;37.40;;;;;;;21.57;20.95;95720.81;6228251;27;109803;-61
2024/01/23 13:35:47;;;;;;;43.27;38.87;;;;;;;21.58;21.15;95730.41;6212574;28;109289;-61
2024/01/23 13:38:50;;;;;;;42.03;37.83;;;;;;;21.56;20.97;95734.44;6221867;28;109169;-60
2024/01/23 13:41:59;;;;;;;41.93;37.63;;;;;;;21.56;21.35;95731.75;6238180;28;110207;-60
2024/01/23 13:45:06;;;;;;;41.87;37.47;;;;;;;21.56;21.04;95737.09;6229005;27;111152;-60
2024/01/23 13:48:09;;;;;;;40.93;36.63;;;;;;;21.56;21.06;95737.09;6238201;27;110134;-61
2024/01/23 13:51:12;;;;;;;43.10;38.60;;;;;;;21.56;20.76;95737.09;6237796;27;109046;-60
2024/01/23 13:54:16;;;;;;;41.90;37.53;;;;;;;21.57;21.24;95741.34;6227549;27;109413;-60
2024/01/23 13:57:20;;;;;;;41.17;37.07;;;;;;;21.57;20.83;95744.00;6236878;27;109151;-61